Time;durP1;ratioP1;P1;durP2;ratioP2;P2;SDS_P1;SDS_P2;PMS_P1;PMS_P2;Temp;Humidity;BMP_temperature;BMP_pressure;BME280_temperature;BME280_humidity;BME280_pressure;Samples;Min_cycle;Max_cycle;Signal;HPM_P1;HPM_P2
2020/12/23 00:00:10;;;;;;;12.90;6.22;;;11.20;99.90;;;;;;4991976;28;20050;-68
2020/12/23 00:02:36;;;;;;;11.50;6.30;;;11.30;99.90;;;;;;4993472;28;20102;-67
2020/12/23 00:05:07;;;;;;;19.33;6.68;;;11.30;99.90;;;;;;4991906;28;20129;-68
2020/12/23 00:07:32;;;;;;;13.23;6.45;;;11.20;99.90;;;;;;4991995;28;20372;-65
2020/12/23 00:09:58;;;;;;;14.90;6.22;;;11.10;99.90;;;;;;4992090;28;20518;-65
2020/12/23 00:12:24;;;;;;;10.60;5.97;;;11.10;99.90;;;;;;4992147;28;20061;-66
2020/12/23 00:14:49;;;;;;;12.95;6.03;;;11.10;99.90;;;;;;4992375;28;20117;-66
2020/12/23 00:17:19;;;;;;;12.60;5.85;;;11.10;99.90;;;;;;4991930;28;20357;-66
2020/12/23 00:19:46;;;;;;;12.95;5.43;;;11.00;99.90;;;;;;4991607;28;20104;-67
2020/12/23 00:22:11;;;;;;;15.82;6.18;;;11.10;99.90;;;;;;4991583;28;20367;-66
2020/12/23 00:24:37;;;;;;;19.10;5.93;;;11.10;99.90;;;;;;4991438;28;20114;-67
2020/12/23 00:27:02;;;;;;;15.07;6.00;;;11.10;99.90;;;;;;4991669;28;20101;-68
2020/12/23 00:29:28;;;;;;;13.13;6.22;;;11.10;99.90;;;;;;4993387;28;20032;-67
2020/12/23 00:31:54;;;;;;;10.23;5.63;;;11.00;99.90;;;;;;4991895;28;20042;-68
2020/12/23 00:34:20;;;;;;;11.77;5.95;;;11.10;99.90;;;;;;4991748;28;20049;-67
2020/12/23 00:36:54;;;;;;;10.93;5.35;;;11.10;99.90;;;;;;4991106;28;20472;-66
2020/12/23 00:39:20;;;;;;;17.15;5.63;;;11.20;99.90;;;;;;4991216;28;20113;-68
2020/12/23 00:41:46;;;;;;;10.55;5.80;;;11.30;99.90;;;;;;4993456;28;20121;-67
2020/12/23 00:44:13;;;;;;;10.93;5.68;;;11.30;99.90;;;;;;4991710;28;20076;-67
2020/12/23 00:46:39;;;;;;;12.63;5.35;;;11.30;99.90;;;;;;4991146;28;20045;-67
2020/12/23 00:49:05;;;;;;;11.55;5.25;;;11.20;99.90;;;;;;4993802;28;20042;-66
2020/12/23 00:51:30;;;;;;;9.55;5.30;;;11.10;99.90;;;;;;4995079;28;20130;-67
2020/12/23 00:53:56;;;;;;;10.38;5.78;;;11.20;99.90;;;;;;4996927;28;20404;-69
2020/12/23 00:56:22;;;;;;;16.48;6.07;;;11.20;99.90;;;;;;4994723;28;20046;-67
2020/12/23 00:58:48;;;;;;;11.10;5.57;;;11.30;99.90;;;;;;4995136;28;20053;-67
2020/12/23 01:01:15;;;;;;;9.80;5.63;;;11.10;99.90;;;;;;4994731;28;20528;-66
2020/12/23 01:03:40;;;;;;;11.55;5.78;;;11.20;99.90;;;;;;4994708;28;20423;-66
2020/12/23 01:06:07;;;;;;;13.32;6.18;;;11.20;99.90;;;;;;4994990;28;20109;-66
2020/12/23 01:08:33;;;;;;;13.20;7.13;;;11.20;99.90;;;;;;4996199;28;20022;-65
2020/12/23 01:10:59;;;;;;;12.30;6.07;;;11.20;99.90;;;;;;4994622;28;20472;-66
2020/12/23 01:13:24;;;;;;;10.55;5.80;;;11.10;99.90;;;;;;4994385;28;20038;-66
2020/12/23 01:15:50;;;;;;;14.52;6.18;;;11.10;99.90;;;;;;4994479;28;20507;-66
2020/12/23 01:18:15;;;;;;;14.68;6.60;;;11.20;99.90;;;;;;4994515;28;20107;-65
2020/12/23 01:20:41;;;;;;;11.90;6.13;;;11.20;99.90;;;;;;4996096;28;20041;-66
2020/12/23 01:23:07;;;;;;;11.13;5.97;;;11.30;99.90;;;;;;4994780;28;20035;-66
2020/12/23 01:25:32;;;;;;;9.55;5.85;;;11.20;99.90;;;;;;4994473;28;20369;-67
2020/12/23 01:27:58;;;;;;;12.18;6.35;;;11.10;99.90;;;;;;4994282;28;20048;-66
2020/12/23 01:30:24;;;;;;;10.55;6.03;;;11.20;99.90;;;;;;4994061;28;20034;-67
2020/12/23 01:32:49;;;;;;;9.13;5.35;;;11.20;99.90;;;;;;4994839;28;20495;-66
2020/12/23 01:35:15;;;;;;;9.38;5.93;;;11.20;99.90;;;;;;4994403;28;20392;-65
2020/12/23 01:37:41;;;;;;;14.13;5.35;;;11.20;99.90;;;;;;4994479;28;20480;-66
2020/12/23 01:40:07;;;;;;;10.98;5.72;;;11.10;99.90;;;;;;4994236;28;20068;-66
2020/12/23 01:42:34;;;;;;;13.63;5.53;;;11.00;99.90;;;;;;4992928;28;20101;-66
2020/12/23 01:45:00;;;;;;;10.77;6.35;;;11.00;99.90;;;;;;4994391;28;20085;-67
2020/12/23 01:47:28;;;;;;;11.85;5.70;;;11.00;99.90;;;;;;4994030;28;20026;-66
2020/12/23 01:49:54;;;;;;;;;;;11.00;99.90;;;;;;4994653;28;20116;-66
2020/12/23 01:52:20;;;;;;;11.60;5.03;;;11.10;99.90;;;;;;4994178;28;20312;-66
2020/12/23 01:54:47;;;;;;;10.40;5.25;;;11.00;99.90;;;;;;4992897;28;20042;-66
2020/12/23 01:57:13;;;;;;;9.25;5.40;;;11.00;99.90;;;;;;4993641;28;20101;-66
2020/12/23 01:59:39;;;;;;;11.35;5.70;;;11.00;99.90;;;;;;4995034;28;20114;-65
2020/12/23 02:02:24;;;;;;;11.27;5.20;;;11.00;99.90;;;;;;4993471;28;20034;-66
2020/12/23 02:04:51;;;;;;;9.48;5.30;;;11.00;99.90;;;;;;4983242;28;20034;-67
2020/12/23 02:07:17;;;;;;;10.63;5.30;;;11.00;99.90;;;;;;4992750;28;20042;-67
2020/12/23 02:09:48;;;;;;;20.65;6.38;;;11.00;99.90;;;;;;4993473;28;20100;-67
2020/12/23 02:12:15;;;;;;;11.50;5.82;;;11.00;99.90;;;;;;4993469;28;20040;-66
2020/12/23 02:14:41;;;;;;;8.82;5.57;;;11.10;99.90;;;;;;4995025;28;20440;-66
2020/12/23 02:17:07;;;;;;;17.00;5.97;;;11.00;99.90;;;;;;4993102;28;20038;-66
2020/12/23 02:19:33;;;;;;;8.25;5.03;;;10.90;99.90;;;;;;4993329;28;20048;-66
2020/12/23 02:21:59;;;;;;;14.43;5.57;;;10.90;99.90;;;;;;4993537;28;20512;-67
2020/12/23 02:24:25;;;;;;;9.70;5.10;;;10.90;99.90;;;;;;4993409;28;20441;-66
2020/12/23 02:26:51;;;;;;;13.23;5.63;;;10.90;99.90;;;;;;4994929;28;20089;-65
2020/12/23 02:29:17;;;;;;;11.95;4.95;;;11.00;99.90;;;;;;4993369;28;20038;-67
2020/12/23 02:31:43;;;;;;;10.63;4.70;;;11.00;99.90;;;;;;4992295;28;20030;-65
2020/12/23 02:34:08;;;;;;;11.82;5.82;;;11.00;99.90;;;;;;4993195;28;20038;-66
2020/12/23 02:36:34;;;;;;;11.77;4.82;;;11.00;99.90;;;;;;4991912;28;20046;-66
2020/12/23 02:39:00;;;;;;;13.20;4.75;;;10.90;99.90;;;;;;4994598;28;20039;-66
2020/12/23 02:41:25;;;;;;;10.85;5.07;;;11.00;99.90;;;;;;4993378;28;20506;-64
2020/12/23 02:43:51;;;;;;;11.38;5.22;;;10.90;99.90;;;;;;4992958;28;20042;-66
2020/12/23 02:46:18;;;;;;;9.57;5.07;;;10.90;99.90;;;;;;4992788;28;20126;-66
2020/12/23 02:48:44;;;;;;;12.57;4.65;;;10.80;99.90;;;;;;4992708;28;20065;-66
2020/12/23 02:51:10;;;;;;;10.50;4.70;;;10.80;99.90;;;;;;4992752;28;20058;-67
2020/12/23 02:53:36;;;;;;;10.15;5.22;;;10.80;99.90;;;;;;4993194;28;20030;-65
2020/12/23 02:56:03;;;;;;;11.30;4.90;;;10.90;99.90;;;;;;4992196;28;20045;-68
2020/12/23 02:58:28;;;;;;;13.40;5.22;;;10.90;99.90;;;;;;4992807;28;20501;-65
2020/12/23 03:00:54;;;;;;;11.95;5.35;;;10.80;99.90;;;;;;4992457;28;20038;-65
2020/12/23 03:03:20;;;;;;;10.88;5.38;;;10.80;99.90;;;;;;4992658;28;20034;-66
2020/12/23 03:05:45;;;;;;;7.78;5.22;;;10.80;99.90;;;;;;4994022;28;20356;-65
2020/12/23 03:08:11;;;;;;;8.40;5.00;;;10.80;99.90;;;;;;4992964;28;20053;-65
2020/12/23 03:10:37;;;;;;;12.80;5.78;;;10.80;99.90;;;;;;4992065;28;20034;-66
2020/12/23 03:13:02;;;;;;;8.30;5.07;;;10.80;99.90;;;;;;4992500;28;20441;-66
2020/12/23 03:15:28;;;;;;;9.02;5.45;;;10.80;99.90;;;;;;4992203;28;20077;-65
2020/12/23 03:17:53;;;;;;;9.23;5.75;;;10.80;99.90;;;;;;4993780;28;20034;-66
2020/12/23 03:20:19;;;;;;;11.90;5.63;;;10.80;99.90;;;;;;4992197;28;20050;-66
2020/12/23 03:22:45;;;;;;;9.30;4.65;;;10.90;99.90;;;;;;4992196;28;20070;-68
2020/12/23 03:25:10;;;;;;;13.20;5.68;;;11.00;99.90;;;;;;4992106;28;20039;-66
2020/12/23 03:27:36;;;;;;;10.27;5.70;;;10.90;99.90;;;;;;4991998;28;20384;-68
2020/12/23 03:30:03;;;;;;;13.65;5.30;;;10.90;99.90;;;;;;4992214;28;20113;-68
2020/12/23 03:32:29;;;;;;;13.60;6.07;;;11.00;99.90;;;;;;4993820;28;20026;-66
2020/12/23 03:34:55;;;;;;;14.55;5.40;;;11.00;99.90;;;;;;4992151;28;20042;-66
2020/12/23 03:37:20;;;;;;;13.38;5.90;;;10.90;99.90;;;;;;4992107;28;20039;-66
2020/12/23 03:39:46;;;;;;;13.13;6.35;;;10.90;99.90;;;;;;4991931;28;20046;-66
2020/12/23 03:42:12;;;;;;;8.35;4.90;;;11.00;99.90;;;;;;4991944;28;20026;-66
2020/12/23 03:44:37;;;;;;;15.85;5.97;;;10.90;99.90;;;;;;4992673;28;20028;-67
2020/12/23 03:47:03;;;;;;;11.35;5.88;;;10.90;99.90;;;;;;4991260;28;20129;-67
2020/12/23 03:49:28;;;;;;;11.93;6.35;;;10.90;99.90;;;;;;4992035;28;20035;-66
2020/12/23 03:51:54;;;;;;;12.35;6.18;;;10.80;99.90;;;;;;4992234;28;20421;-65
2020/12/23 03:54:20;;;;;;;9.07;5.65;;;10.70;99.90;;;;;;4992126;28;20488;-67
2020/12/23 03:56:45;;;;;;;15.18;6.18;;;10.80;99.90;;;;;;4993583;28;20045;-66
2020/12/23 03:59:11;;;;;;;11.10;5.53;;;10.80;99.90;;;;;;4991878;28;20105;-66
2020/12/23 04:01:37;;;;;;;11.45;6.38;;;10.80;99.90;;;;;;4991785;28;20117;-66
2020/12/23 04:04:02;;;;;;;14.25;5.72;;;10.70;99.90;;;;;;4992248;28;20462;-65
2020/12/23 04:06:28;;;;;;;13.32;6.55;;;10.80;99.90;;;;;;4991877;28;20089;-66
2020/12/23 04:08:53;;;;;;;10.02;5.72;;;10.70;99.90;;;;;;4993613;28;20037;-66
2020/12/23 04:11:20;;;;;;;10.82;5.53;;;10.70;99.90;;;;;;4991935;28;20042;-67
2020/12/23 04:13:46;;;;;;;12.50;5.60;;;10.60;99.90;;;;;;4991849;28;20034;-67
2020/12/23 04:16:11;;;;;;;11.70;6.00;;;10.60;99.90;;;;;;4991778;28;20043;-66
2020/12/23 04:18:37;;;;;;;14.15;6.72;;;10.50;99.90;;;;;;4990908;28;20026;-66
2020/12/23 04:21:02;;;;;;;12.18;6.05;;;10.70;99.90;;;;;;4991679;28;20069;-68
2020/12/23 04:23:28;;;;;;;14.02;6.30;;;10.50;99.90;;;;;;4996396;28;20099;-67
2020/12/23 04:25:54;;;;;;;15.50;6.63;;;10.50;99.90;;;;;;4994435;28;20085;-67
2020/12/23 04:28:20;;;;;;;16.92;7.10;;;10.40;99.90;;;;;;4995178;28;20070;-65
2020/12/23 04:30:47;;;;;;;12.88;7.07;;;10.40;99.90;;;;;;4995614;28;20034;-65
2020/12/23 04:33:16;;;;;;;16.95;8.13;;;10.30;99.90;;;;;;4995347;28;20030;-66
2020/12/23 04:35:42;;;;;;;12.80;7.18;;;10.20;99.90;;;;;;4996695;28;20034;-68
2020/12/23 04:38:07;;;;;;;12.82;7.38;;;10.20;99.90;;;;;;4995486;28;20092;-65
2020/12/23 04:40:33;;;;;;;13.65;6.95;;;10.30;99.90;;;;;;4995260;28;20030;-66
2020/12/23 04:42:59;;;;;;;15.38;6.97;;;10.30;99.90;;;;;;4995382;28;20045;-67
2020/12/23 04:45:25;;;;;;;18.80;7.28;;;10.30;99.90;;;;;;4995302;28;20031;-67
2020/12/23 04:47:52;;;;;;;17.05;7.95;;;10.30;99.90;;;;;;4996585;28;20065;-67
2020/12/23 04:50:21;;;;;;;16.65;8.02;;;10.30;99.90;;;;;;4995318;28;20062;-66
2020/12/23 04:52:47;;;;;;;16.42;7.30;;;10.30;99.90;;;;;;4995370;28;20034;-66
2020/12/23 04:55:13;;;;;;;16.85;7.30;;;10.30;99.90;;;;;;4994674;28;20057;-65
2020/12/23 04:57:40;;;;;;;17.25;7.90;;;10.30;99.90;;;;;;4995082;28;20050;-66
2020/12/23 05:00:06;;;;;;;13.93;7.57;;;10.30;99.90;;;;;;4994948;28;20027;-68
2020/12/23 05:02:32;;;;;;;14.23;6.70;;;10.30;99.90;;;;;;4996295;28;20026;-67
2020/12/23 05:04:58;;;;;;;16.65;7.20;;;10.40;99.90;;;;;;4993616;28;20089;-66
2020/12/23 05:07:24;;;;;;;15.45;7.93;;;10.30;99.90;;;;;;4994733;28;20075;-66
2020/12/23 05:09:51;;;;;;;13.52;6.63;;;10.40;99.90;;;;;;4994719;28;20049;-66
2020/12/23 05:12:20;;;;;;;13.23;7.00;;;10.30;99.90;;;;;;4994754;28;20089;-68
2020/12/23 05:14:46;;;;;;;13.95;7.35;;;10.30;99.90;;;;;;4996143;28;20026;-67
2020/12/23 05:17:11;;;;;;;15.43;9.27;;;10.30;99.90;;;;;;4994586;28;20039;-66
2020/12/23 05:19:38;;;;;;;16.48;8.55;;;10.30;99.90;;;;;;4994314;28;20026;-65
2020/12/23 05:22:06;;;;;;;17.58;7.68;;;10.30;99.90;;;;;;4994419;28;20042;-66
2020/12/23 05:24:34;;;;;;;13.55;7.50;;;10.30;99.90;;;;;;4994278;28;20038;-66
2020/12/23 05:27:03;;;;;;;12.93;7.22;;;10.30;99.90;;;;;;4995720;28;20396;-68
2020/12/23 05:29:28;;;;;;;19.67;7.57;;;10.30;99.90;;;;;;4994741;28;20034;-67
2020/12/23 05:31:55;;;;;;;16.33;7.05;;;10.30;99.90;;;;;;4994081;28;20053;-66
2020/12/23 05:34:21;;;;;;;18.20;8.52;;;10.20;99.90;;;;;;4993903;28;20756;-66
2020/12/23 05:36:49;;;;;;;16.00;7.40;;;10.20;99.90;;;;;;4994245;28;20042;-66
2020/12/23 05:39:15;;;;;;;16.02;6.85;;;10.20;99.90;;;;;;4994100;28;20045;-66
2020/12/23 05:41:41;;;;;;;11.30;6.47;;;10.20;99.90;;;;;;4995794;28;20030;-67
2020/12/23 05:44:16;;;;;;;12.50;7.25;;;10.20;99.90;;;;;;4994354;28;20085;-66
2020/12/23 05:46:41;;;;;;;14.15;7.00;;;10.20;99.90;;;;;;4994320;28;20042;-65
2020/12/23 05:49:10;;;;;;;18.13;7.30;;;10.20;99.90;;;;;;4994079;28;20113;-66
2020/12/23 05:51:37;;;;;;;16.08;7.70;;;10.20;99.90;;;;;;4994047;28;20216;-66
2020/12/23 05:54:05;;;;;;;15.88;7.10;;;10.20;99.90;;;;;;4993575;28;20022;-66
2020/12/23 05:56:38;;;;;;;14.07;8.05;;;10.20;99.90;;;;;;4995316;28;20356;-66
2020/12/23 05:59:04;;;;;;;12.63;7.72;;;10.30;99.90;;;;;;4993949;28;20042;-67
2020/12/23 06:01:35;;;;;;;13.15;6.75;;;10.20;99.90;;;;;;4993706;28;20387;-66
2020/12/23 06:04:11;;;;;;;19.77;8.32;;;10.10;99.90;;;;;;4993828;28;20031;-66
2020/12/23 06:06:42;;;;;;;17.02;8.27;;;10.30;99.90;;;;;;4993724;28;20442;-67
2020/12/23 06:09:07;;;;;;;13.02;6.97;;;10.20;99.90;;;;;;4993769;28;20483;-67
2020/12/23 06:11:47;;;;;;;14.07;6.93;;;10.30;99.90;;;;;;4995233;28;20050;-66
2020/12/23 06:14:18;;;;;;;16.38;7.03;;;10.20;99.90;;;;;;4993512;28;20029;-66
2020/12/23 06:17:07;;;;;;;18.42;8.32;;;10.30;99.90;;;;;;4993592;28;20083;-67
2020/12/23 06:19:36;;;;;;;14.43;7.45;;;10.20;99.90;;;;;;4993416;28;20110;-66
2020/12/23 06:22:05;;;;;;;16.52;9.00;;;10.30;99.90;;;;;;4993550;28;20173;-67
2020/12/23 06:24:32;;;;;;;14.65;7.85;;;10.30;99.90;;;;;;4993388;28;20461;-67
2020/12/23 06:26:59;;;;;;;16.65;8.27;;;10.40;99.90;;;;;;4993782;28;20123;-66
2020/12/23 06:29:30;;;;;;;17.40;8.20;;;10.40;99.90;;;;;;4993122;28;20125;-66
2020/12/23 06:32:00;;;;;;;18.77;9.18;;;10.30;99.90;;;;;;4992669;28;20602;-66
2020/12/23 06:34:35;;;;;;;18.70;9.40;;;10.30;99.90;;;;;;4993222;28;20379;-67
2020/12/23 06:37:17;;;;;;;15.88;9.27;;;10.50;99.90;;;;;;4993084;28;20054;-67
2020/12/23 06:39:44;;;;;;;23.00;9.52;;;10.50;99.90;;;;;;4991969;28;20134;-66
2020/12/23 06:42:10;;;;;;;20.15;9.73;;;10.40;99.90;;;;;;4992421;28;20062;-66
2020/12/23 06:44:44;;;;;;;20.20;9.60;;;10.50;99.90;;;;;;4993775;28;20030;-66
2020/12/23 06:47:11;;;;;;;17.60;8.75;;;10.50;99.90;;;;;;4991888;28;20464;-66
2020/12/23 06:49:47;;;;;;;25.95;10.20;;;10.40;99.90;;;;;;4993108;28;20049;-65
2020/12/23 06:52:21;;;;;;;22.33;10.98;;;10.50;99.90;;;;;;4993022;28;20476;-67
2020/12/23 06:55:01;;;;;;;21.65;10.65;;;10.40;99.90;;;;;;4992873;28;20499;-66
2020/12/23 06:57:36;;;;;;;20.08;10.98;;;10.60;99.90;;;;;;4991565;28;20038;-67
2020/12/23 07:00:20;;;;;;;26.42;11.43;;;10.60;99.90;;;;;;4992632;28;20457;-66
2020/12/23 07:02:48;;;;;;;23.92;12.13;;;10.60;99.90;;;;;;4994063;28;20014;-65
2020/12/23 07:05:34;;;;;;;;;;;10.50;99.90;;;;;;4993241;28;20045;-66
2020/12/23 07:08:05;;;;;;;25.00;12.07;;;10.50;99.90;;;;;;4990814;28;19918;-66
2020/12/23 07:10:50;;;;;;;28.65;12.35;;;10.50;99.90;;;;;;4992604;28;20113;-67
2020/12/23 07:13:17;;;;;;;29.20;12.43;;;10.50;99.90;;;;;;4991694;28;20045;-68
2020/12/23 07:15:54;;;;;;;26.08;12.43;;;10.60;99.90;;;;;;4992333;28;20396;-66
2020/12/23 07:18:30;;;;;;;32.53;12.02;;;10.60;99.90;;;;;;4991357;28;20022;-67
2020/12/23 07:20:59;;;;;;;25.02;12.40;;;10.70;99.90;;;;;;4993938;28;20430;-67
2020/12/23 07:23:27;;;;;;;22.15;10.55;;;10.70;99.90;;;;;;4992394;28;20128;-66
2020/12/23 07:25:54;;;;;;;25.40;11.50;;;10.70;99.90;;;;;;4992567;28;20121;-66
2020/12/23 07:28:26;;;;;;;26.05;11.35;;;10.60;99.90;;;;;;4992437;28;20375;-65
2020/12/23 07:30:51;;;;;;;25.40;12.65;;;10.60;99.90;;;;;;4992121;28;20042;-66
2020/12/23 07:33:21;;;;;;;22.00;10.80;;;10.70;99.90;;;;;;4991996;28;20041;-67
2020/12/23 07:35:48;;;;;;;26.73;12.13;;;10.80;99.90;;;;;;4993485;28;20522;-66
2020/12/23 07:38:15;;;;;;;22.40;10.15;;;10.80;99.90;;;;;;4992188;28;20119;-65
2020/12/23 07:40:41;;;;;;;27.10;12.23;;;10.70;99.90;;;;;;4992445;28;20049;-65
2020/12/23 07:43:08;;;;;;;33.22;13.35;;;10.70;99.90;;;;;;4991024;28;20034;-67
2020/12/23 07:45:35;;;;;;;28.83;12.80;;;10.80;99.90;;;;;;4991128;28;20034;-65
2020/12/23 07:48:09;;;;;;;34.88;13.65;;;10.70;99.90;;;;;;4993391;28;20030;-66
2020/12/23 07:50:41;;;;;;;37.03;13.55;;;10.80;99.90;;;;;;4992291;28;20045;-66
2020/12/23 07:53:16;;;;;;;32.90;14.02;;;10.80;99.90;;;;;;4991985;28;20121;-65
2020/12/23 07:55:47;;;;;;;30.65;14.30;;;10.90;99.90;;;;;;4992077;28;20050;-68
2020/12/23 07:58:14;;;;;;;39.25;14.05;;;10.90;99.90;;;;;;4993954;28;20030;-67
2020/12/23 08:00:44;;;;;;;34.42;14.57;;;10.80;99.90;;;;;;4995206;28;20030;-67
2020/12/23 08:03:10;;;;;;;36.25;14.00;;;10.80;99.90;;;;;;4995030;28;20408;-67
2020/12/23 08:05:36;;;;;;;34.92;14.40;;;10.80;99.90;;;;;;4997500;28;20030;-68
2020/12/23 08:08:01;;;;;;;36.25;14.80;;;10.80;99.90;;;;;;4996089;28;20092;-67
2020/12/23 08:10:27;;;;;;;37.42;13.05;;;10.80;99.90;;;;;;4996069;28;20038;-65
2020/12/23 08:12:54;;;;;;;32.38;14.25;;;10.90;99.90;;;;;;4994937;28;20050;-66
2020/12/23 08:15:20;;;;;;;33.33;14.23;;;10.90;99.90;;;;;;4995910;28;20030;-66
2020/12/23 08:17:46;;;;;;;34.42;12.93;;;10.80;99.90;;;;;;4997055;28;20038;-68
2020/12/23 08:20:16;;;;;;;33.38;14.73;;;10.80;99.90;;;;;;4995650;28;20104;-66
2020/12/23 08:22:44;;;;;;;35.22;14.77;;;10.80;99.90;;;;;;4995410;28;20069;-67
2020/12/23 08:25:15;;;;;;;29.77;14.15;;;10.80;99.90;;;;;;4995607;28;20026;-66
2020/12/23 08:27:43;;;;;;;39.00;15.02;;;10.70;99.90;;;;;;4995575;28;20472;-68
2020/12/23 08:30:12;;;;;;;44.70;15.35;;;10.80;99.90;;;;;;4995633;28;20026;-67
2020/12/23 08:32:57;;;;;;;39.15;16.27;;;10.80;99.90;;;;;;4997091;28;20154;-66
2020/12/23 08:35:50;;;;;;;37.65;15.02;;;10.90;99.90;;;;;;4995511;28;20072;-68
2020/12/23 08:38:21;;;;;;;39.75;15.93;;;10.90;99.90;;;;;;4992675;28;20058;-67
2020/12/23 08:40:52;;;;;;;36.33;15.35;;;11.00;99.90;;;;;;4995324;28;20368;-67
2020/12/23 08:43:22;;;;;;;38.22;15.45;;;10.90;99.90;;;;;;4995348;28;20031;-69
2020/12/23 08:45:48;;;;;;;40.50;15.52;;;11.00;99.90;;;;;;4995286;28;20073;-68
2020/12/23 08:48:19;;;;;;;40.67;16.33;;;10.90;99.90;;;;;;4995113;28;20369;-69
2020/12/23 08:50:56;;;;;;;38.42;17.05;;;11.00;99.90;;;;;;4996560;28;20069;-70
2020/12/23 08:53:35;;;;;;;44.33;17.10;;;11.00;99.90;;;;;;4994144;28;20053;-70
2020/12/23 08:56:20;;;;;;;43.47;16.73;;;10.90;99.90;;;;;;4994600;28;20442;-70
2020/12/23 08:58:51;;;;;;;35.78;14.93;;;10.90;99.90;;;;;;4994634;28;20145;-72
2020/12/23 09:01:24;;;;;;;41.88;17.70;;;11.00;99.90;;;;;;4994652;28;20057;-70
2020/12/23 09:04:09;;;;;;;41.58;17.67;;;10.90;99.90;;;;;;4995014;28;20046;-70
2020/12/23 09:06:40;;;;;;;40.05;16.40;;;10.90;99.90;;;;;;4995103;28;20089;-68
2020/12/23 09:09:13;;;;;;;39.65;15.73;;;11.00;99.90;;;;;;4992052;28;20030;-69
2020/12/23 09:11:41;;;;;;;38.13;16.42;;;11.00;99.90;;;;;;4995627;28;20083;-69
2020/12/23 09:14:13;;;;;;;;;;;11.10;99.90;;;;;;4995533;28;20424;-68
2020/12/23 09:16:54;;;;;;;39.75;15.60;;;11.10;99.90;;;;;;4995248;28;19913;-68
2020/12/23 09:19:20;;;;;;;34.88;15.70;;;11.20;99.90;;;;;;4994850;28;20085;-69
2020/12/23 09:21:55;;;;;;;37.13;14.60;;;11.10;99.90;;;;;;4994774;28;20794;-69
2020/12/23 09:24:24;;;;;;;53.25;24.23;;;11.10;99.90;;;;;;4994562;28;20022;-69
2020/12/23 09:26:49;;;;;;;36.92;17.20;;;11.10;99.90;;;;;;4996129;28;20510;-66
2020/12/23 09:29:15;;;;;;;37.00;16.23;;;11.10;99.90;;;;;;4992913;28;20543;-69
2020/12/23 09:31:54;;;;;;;34.40;15.10;;;11.10;99.90;;;;;;4994646;28;20054;-69
2020/12/23 09:34:25;;;;;;;39.85;16.75;;;11.10;99.90;;;;;;4994554;28;20052;-70
2020/12/23 09:36:57;;;;;;;32.53;15.57;;;11.00;99.90;;;;;;4993515;28;20409;-67
2020/12/23 09:39:23;;;;;;;36.83;14.80;;;11.10;99.90;;;;;;4994604;28;20092;-68
2020/12/23 09:42:06;;;;;;;36.63;15.50;;;11.10;99.90;;;;;;4995917;28;20042;-67
2020/12/23 09:44:37;;;;;;;33.85;15.10;;;11.00;99.90;;;;;;4993593;28;20034;-68
2020/12/23 09:47:03;;;;;;;33.20;14.60;;;11.00;99.90;;;;;;4992556;28;20030;-68
2020/12/23 09:49:29;;;;;;;30.95;15.10;;;11.10;99.90;;;;;;4993161;28;20108;-67
2020/12/23 09:51:54;;;;;;;35.97;15.02;;;11.10;99.90;;;;;;4993460;28;20391;-69
2020/12/23 09:54:21;;;;;;;36.60;15.25;;;11.10;99.90;;;;;;4992265;28;20446;-69
2020/12/23 09:56:51;;;;;;;33.50;15.40;;;11.10;99.90;;;;;;4995218;28;20177;-68
2020/12/23 09:59:17;;;;;;;36.42;17.13;;;11.10;99.90;;;;;;4993809;28;20042;-67
2020/12/23 10:01:44;;;;;;;38.75;20.02;;;11.10;99.90;;;;;;4993937;28;20100;-68
2020/12/23 10:04:10;;;;;;;36.17;16.70;;;11.10;99.90;;;;;;4993389;28;20030;-70
2020/12/23 10:06:36;;;;;;;36.42;15.77;;;11.10;99.90;;;;;;4993640;28;20110;-69
2020/12/23 10:09:02;;;;;;;30.40;14.73;;;11.10;99.90;;;;;;4993913;28;20053;-69
2020/12/23 10:11:28;;;;;;;32.45;14.88;;;11.10;99.90;;;;;;4994931;28;20041;-68
2020/12/23 10:13:56;;;;;;;32.05;15.13;;;11.10;99.90;;;;;;4993483;28;20389;-67
2020/12/23 10:16:22;;;;;;;34.00;15.60;;;11.20;99.90;;;;;;4993714;28;20054;-66
2020/12/23 10:18:48;;;;;;;40.60;15.90;;;11.20;99.90;;;;;;4993363;28;20114;-67
2020/12/23 10:21:14;;;;;;;35.97;15.63;;;11.20;99.90;;;;;;4991973;28;20126;-68
2020/12/23 10:23:39;;;;;;;31.77;15.38;;;11.20;99.90;;;;;;4995014;28;20491;-68
2020/12/23 10:26:05;;;;;;;33.58;14.98;;;11.20;99.90;;;;;;4993703;28;20101;-68
2020/12/23 10:28:31;;;;;;;34.83;15.10;;;11.30;99.90;;;;;;4992067;28;20043;-68
2020/12/23 10:30:56;;;;;;;32.38;15.15;;;11.20;99.90;;;;;;4992865;28;20096;-67
2020/12/23 10:33:22;;;;;;;31.17;14.93;;;11.30;99.90;;;;;;4993106;28;20224;-68
2020/12/23 10:35:47;;;;;;;37.50;16.08;;;11.30;99.90;;;;;;4994740;28;20070;-68
2020/12/23 10:38:13;;;;;;;30.70;14.40;;;11.20;99.90;;;;;;4991962;28;20104;-68
2020/12/23 10:40:39;;;;;;;38.17;15.98;;;11.20;99.90;;;;;;5009668;28;20069;-68
2020/12/23 10:43:04;;;;;;;31.52;15.77;;;11.20;99.90;;;;;;5012283;28;20536;-67
2020/12/23 10:45:30;;;;;;;36.38;17.17;;;11.30;99.90;;;;;;5012009;28;20033;-68
2020/12/23 10:47:55;;;;;;;31.67;14.98;;;11.30;99.90;;;;;;5013466;28;20068;-70
2020/12/23 10:50:21;;;;;;;33.38;15.40;;;11.40;99.90;;;;;;5012447;28;20042;-70
2020/12/23 10:52:47;;;;;;;33.70;16.30;;;11.40;99.90;;;;;;5012654;28;20034;-72
2020/12/23 10:55:13;;;;;;;31.33;14.70;;;11.40;99.90;;;;;;5012098;28;20053;-68
2020/12/23 10:57:38;;;;;;;36.70;16.38;;;11.40;99.90;;;;;;5012214;28;20471;-68
2020/12/23 11:00:07;;;;;;;32.65;15.90;;;11.50;99.90;;;;;;5010918;28;20124;-68
2020/12/23 11:02:33;;;;;;;33.20;14.68;;;11.50;99.90;;;;;;5013738;28;20034;-73
2020/12/23 11:04:58;;;;;;;37.45;15.65;;;11.50;99.90;;;;;;5010888;28;20057;-68
2020/12/23 11:07:24;;;;;;;35.28;14.38;;;11.50;99.90;;;;;;5012052;28;20129;-73
2020/12/23 11:09:50;;;;;;;37.15;16.67;;;11.60;99.90;;;;;;5012234;28;20360;-70
2020/12/23 11:12:16;;;;;;;32.45;15.27;;;11.60;99.90;;;;;;5011539;28;20019;-70
2020/12/23 11:14:42;;;;;;;31.45;14.80;;;11.60;99.90;;;;;;5013573;28;20041;-68
2020/12/23 11:17:08;;;;;;;30.55;14.98;;;11.60;99.90;;;;;;5011803;28;20042;-69
2020/12/23 11:19:33;;;;;;;29.77;14.63;;;11.70;99.90;;;;;;5012240;28;20052;-69
2020/12/23 11:22:00;;;;;;;33.15;15.00;;;11.70;99.90;;;;;;5011852;28;20038;-70
2020/12/23 11:24:25;;;;;;;38.90;18.52;;;11.70;99.90;;;;;;5011830;28;20030;-70
2020/12/23 11:26:51;;;;;;;39.67;20.17;;;11.70;99.90;;;;;;5012434;28;20030;-74
2020/12/23 11:29:17;;;;;;;33.10;15.80;;;11.70;99.90;;;;;;5011756;28;20052;-70
2020/12/23 11:31:42;;;;;;;32.35;14.23;;;11.70;99.90;;;;;;5010033;28;20111;-71
2020/12/23 11:34:08;;;;;;;30.13;14.80;;;11.70;99.90;;;;;;5010407;28;20112;-69
2020/12/23 11:36:34;;;;;;;34.50;14.02;;;11.70;99.90;;;;;;5011635;28;20105;-69
2020/12/23 11:39:00;;;;;;;27.85;13.32;;;11.70;99.90;;;;;;5013156;28;20355;-69
2020/12/23 11:41:26;;;;;;;33.75;15.40;;;11.70;99.90;;;;;;5011547;28;20099;-69
2020/12/23 11:43:52;;;;;;;32.80;14.35;;;11.80;99.90;;;;;;5011392;28;20042;-68
2020/12/23 11:46:18;;;;;;;31.52;15.50;;;11.80;99.90;;;;;;5011432;28;20041;-69
2020/12/23 11:48:43;;;;;;;28.80;12.77;;;11.80;99.90;;;;;;5011655;28;20026;-69
2020/12/23 11:51:09;;;;;;;31.48;14.20;;;11.80;99.90;;;;;;5011807;28;20026;-67
2020/12/23 11:53:36;;;;;;;27.30;13.10;;;11.80;99.90;;;;;;5013340;28;20029;-66
2020/12/23 11:56:02;;;;;;;30.25;13.20;;;11.80;99.90;;;;;;5011085;28;20061;-67
2020/12/23 11:58:28;;;;;;;27.63;13.18;;;11.70;99.90;;;;;;5011560;28;20030;-68
2020/12/23 12:00:53;;;;;;;26.50;13.32;;;11.80;99.90;;;;;;5011492;28;20037;-68
2020/12/23 12:03:21;;;;;;;25.73;13.23;;;11.80;99.90;;;;;;5011357;28;20022;-67
2020/12/23 12:05:47;;;;;;;27.85;13.02;;;11.80;99.90;;;;;;5013148;28;20037;-67
2020/12/23 12:08:13;;;;;;;25.50;12.63;;;11.80;99.90;;;;;;5011441;28;20049;-68
2020/12/23 12:10:39;;;;;;;26.20;12.23;;;11.80;99.90;;;;;;5011565;28;20416;-69
2020/12/23 12:13:04;;;;;;;27.83;12.60;;;11.80;99.90;;;;;;5010279;28;20050;-69
2020/12/23 12:15:30;;;;;;;35.70;16.77;;;11.80;99.90;;;;;;5009966;28;20096;-70
2020/12/23 12:17:55;;;;;;;29.77;13.55;;;11.80;99.90;;;;;;5012905;28;20033;-68
2020/12/23 12:20:21;;;;;;;27.70;12.90;;;11.80;99.90;;;;;;5011575;28;20123;-68
2020/12/23 12:22:47;;;;;;;25.67;11.50;;;11.80;99.90;;;;;;5011383;28;20061;-67
2020/12/23 12:25:14;;;;;;;24.70;12.40;;;11.90;99.90;;;;;;5011475;28;20064;-69
2020/12/23 12:27:39;;;;;;;24.98;12.10;;;11.90;99.90;;;;;;5011197;28;20030;-68
2020/12/23 12:30:05;;;;;;;23.90;11.90;;;11.90;99.90;;;;;;5011167;28;20025;-69
2020/12/23 12:32:31;;;;;;;23.30;10.23;;;11.90;99.90;;;;;;5012762;28;20022;-68
2020/12/23 12:34:57;;;;;;;23.10;10.95;;;11.90;99.90;;;;;;5011113;28;20132;-68